sensor_id;sensor_type;location;lat;lon;timestamp;P1;durP1;ratioP1;P2;durP2;ratioP2
2488;SDS011;1255;48.716;9.124;2023-11-22T00:00:26;5.05;;;3.67;;
2488;SDS011;1255;48.716;9.124;2023-11-22T00:02:54;5.60;;;3.83;;
2488;SDS011;1255;48.716;9.124;2023-11-22T00:05:20;4.40;;;3.30;;
2488;SDS011;1255;48.716;9.124;2023-11-22T00:07:47;3.72;;;2.92;;
2488;SDS011;1255;48.716;9.124;2023-11-22T00:10:14;4.30;;;3.78;;
2488;SDS011;1255;48.716;9.124;2023-11-22T00:12:41;5.63;;;4.10;;
2488;SDS011;1255;48.716;9.124;2023-11-22T04:32:06;3.10;;;2.80;;
2488;SDS011;1255;48.716;9.124;2023-11-22T04:34:33;3.97;;;3.58;;
2488;SDS011;1255;48.716;9.124;2023-11-22T04:37:00;3.90;;;2.55;;
2488;SDS011;1255;48.716;9.124;2023-11-22T04:39:26;3.25;;;2.75;;
2488;SDS011;1255;48.716;9.124;2023-11-22T04:41:53;4.05;;;3.25;;
2488;SDS011;1255;48.716;9.124;2023-11-22T04:44:20;4.88;;;2.95;;
2488;SDS011;1255;48.716;9.124;2023-11-22T04:47:06;3.55;;;3.25;;
2488;SDS011;1255;48.716;9.124;2023-11-22T04:49:33;4.25;;;3.35;;
2488;SDS011;1255;48.716;9.124;2023-11-22T04:51:59;5.38;;;3.45;;
2488;SDS011;1255;48.716;9.124;2023-11-22T04:54:26;2.97;;;2.50;;
2488;SDS011;1255;48.716;9.124;2023-11-22T04:56:53;3.33;;;2.65;;
2488;SDS011;1255;48.716;9.124;2023-11-22T04:59:20;3.22;;;2.65;;
2488;SDS011;1255;48.716;9.124;2023-11-22T05:01:47;2.90;;;2.63;;
2488;SDS011;1255;48.716;9.124;2023-11-22T05:04:15;3.65;;;2.60;;
2488;SDS011;1255;48.716;9.124;2023-11-22T05:06:43;3.50;;;2.65;;
2488;SDS011;1255;48.716;9.124;2023-11-22T05:09:11;4.63;;;3.00;;
2488;SDS011;1255;48.716;9.124;2023-11-22T05:11:39;3.65;;;2.78;;
2488;SDS011;1255;48.716;9.124;2023-11-22T05:14:07;4.05;;;2.95;;
2488;SDS011;1255;48.716;9.124;2023-11-22T05:16:33;4.03;;;2.90;;
2488;SDS011;1255;48.716;9.124;2023-11-22T05:19:00;5.70;;;2.70;;
2488;SDS011;1255;48.716;9.124;2023-11-22T05:21:28;4.18;;;2.55;;
2488;SDS011;1255;48.716;9.124;2023-11-22T05:23:55;3.90;;;2.55;;
2488;SDS011;1255;48.716;9.124;2023-11-22T05:26:22;4.53;;;3.33;;
2488;SDS011;1255;48.716;9.124;2023-11-22T05:28:48;4.75;;;3.03;;
2488;SDS011;1255;48.716;9.124;2023-11-22T05:31:15;4.10;;;3.08;;
2488;SDS011;1255;48.716;9.124;2023-11-22T05:33:42;3.17;;;2.88;;
2488;SDS011;1255;48.716;9.124;2023-11-22T05:36:08;4.40;;;3.20;;
2488;SDS011;1255;48.716;9.124;2023-11-22T05:38:38;3.80;;;3.20;;
2488;SDS011;1255;48.716;9.124;2023-11-22T05:41:05;4.20;;;3.10;;
2488;SDS011;1255;48.716;9.124;2023-11-22T05:43:31;3.35;;;2.58;;
2488;SDS011;1255;48.716;9.124;2023-11-22T05:46:01;2.60;;;2.40;;
2488;SDS011;1255;48.716;9.124;2023-11-22T05:48:28;3.25;;;2.47;;
2488;SDS011;1255;48.716;9.124;2023-11-22T05:50:55;3.47;;;2.58;;
2488;SDS011;1255;48.716;9.124;2023-11-22T05:53:22;3.30;;;3.00;;
2488;SDS011;1255;48.716;9.124;2023-11-22T05:55:50;5.30;;;2.60;;
2488;SDS011;1255;48.716;9.124;2023-11-22T05:58:18;4.55;;;2.78;;
2488;SDS011;1255;48.716;9.124;2023-11-22T06:00:45;2.88;;;2.67;;
2488;SDS011;1255;48.716;9.124;2023-11-22T06:03:13;4.05;;;2.78;;
2488;SDS011;1255;48.716;9.124;2023-11-22T06:05:40;2.53;;;2.05;;
2488;SDS011;1255;48.716;9.124;2023-11-22T06:08:07;4.03;;;2.90;;
2488;SDS011;1255;48.716;9.124;2023-11-22T06:10:34;2.83;;;2.63;;
2488;SDS011;1255;48.716;9.124;2023-11-22T06:13:02;3.10;;;2.40;;
2488;SDS011;1255;48.716;9.124;2023-11-22T06:15:28;3.75;;;2.60;;
2488;SDS011;1255;48.716;9.124;2023-11-22T06:17:55;4.65;;;2.67;;
2488;SDS011;1255;48.716;9.124;2023-11-22T06:20:22;3.35;;;2.10;;
2488;SDS011;1255;48.716;9.124;2023-11-22T06:22:51;4.68;;;2.85;;
2488;SDS011;1255;48.716;9.124;2023-11-22T06:25:18;4.80;;;2.80;;
2488;SDS011;1255;48.716;9.124;2023-11-22T06:27:44;3.17;;;2.50;;
2488;SDS011;1255;48.716;9.124;2023-11-22T06:30:13;3.63;;;2.85;;
2488;SDS011;1255;48.716;9.124;2023-11-22T06:32:39;2.60;;;2.40;;
2488;SDS011;1255;48.716;9.124;2023-11-22T06:35:08;3.63;;;2.80;;
2488;SDS011;1255;48.716;9.124;2023-11-22T06:37:36;3.13;;;2.83;;
2488;SDS011;1255;48.716;9.124;2023-11-22T06:40:02;3.45;;;2.53;;
2488;SDS011;1255;48.716;9.124;2023-11-22T06:42:30;2.85;;;2.60;;
2488;SDS011;1255;48.716;9.124;2023-11-22T06:44:58;5.40;;;2.70;;
2488;SDS011;1255;48.716;9.124;2023-11-22T06:47:27;2.75;;;2.55;;
2488;SDS011;1255;48.716;9.124;2023-11-22T06:49:53;4.22;;;2.88;;
2488;SDS011;1255;48.716;9.124;2023-11-22T06:52:20;4.35;;;2.58;;
2488;SDS011;1255;48.716;9.124;2023-11-22T06:54:47;3.17;;;2.47;;
2488;SDS011;1255;48.716;9.124;2023-11-22T06:57:14;2.95;;;2.50;;
2488;SDS011;1255;48.716;9.124;2023-11-22T06:59:40;2.95;;;2.50;;
2488;SDS011;1255;48.716;9.124;2023-11-22T07:02:07;3.92;;;2.90;;
2488;SDS011;1255;48.716;9.124;2023-11-22T07:04:35;3.17;;;2.88;;
2488;SDS011;1255;48.716;9.124;2023-11-22T07:07:02;4.53;;;2.83;;
2488;SDS011;1255;48.716;9.124;2023-11-22T07:09:30;2.75;;;2.42;;
2488;SDS011;1255;48.716;9.124;2023-11-22T07:11:58;3.20;;;2.00;;
2488;SDS011;1255;48.716;9.124;2023-11-22T07:14:24;2.50;;;2.30;;
2488;SDS011;1255;48.716;9.124;2023-11-22T07:16:51;4.15;;;3.00;;
2488;SDS011;1255;48.716;9.124;2023-11-22T07:19:18;2.58;;;2.38;;
2488;SDS011;1255;48.716;9.124;2023-11-22T07:21:46;3.30;;;2.13;;
2488;SDS011;1255;48.716;9.124;2023-11-22T07:24:13;2.50;;;2.30;;
2488;SDS011;1255;48.716;9.124;2023-11-22T07:26:40;2.50;;;1.83;;
2488;SDS011;1255;48.716;9.124;2023-11-22T07:29:08;2.42;;;2.22;;
2488;SDS011;1255;48.716;9.124;2023-11-22T07:31:36;2.50;;;2.20;;
2488;SDS011;1255;48.716;9.124;2023-11-22T07:34:03;3.95;;;2.15;;
2488;SDS011;1255;48.716;9.124;2023-11-22T07:36:31;2.40;;;2.13;;
2488;SDS011;1255;48.716;9.124;2023-11-22T07:38:59;3.45;;;2.42;;
2488;SDS011;1255;48.716;9.124;2023-11-22T07:41:27;3.00;;;2.15;;
2488;SDS011;1255;48.716;9.124;2023-11-22T07:43:56;2.55;;;1.75;;
2488;SDS011;1255;48.716;9.124;2023-11-22T07:46:23;3.05;;;2.28;;
2488;SDS011;1255;48.716;9.124;2023-11-22T07:48:50;3.30;;;1.90;;
2488;SDS011;1255;48.716;9.124;2023-11-22T07:51:17;1.90;;;1.65;;
2488;SDS011;1255;48.716;9.124;2023-11-22T07:53:44;2.58;;;1.88;;
2488;SDS011;1255;48.716;9.124;2023-11-22T07:56:12;2.25;;;2.00;;
2488;SDS011;1255;48.716;9.124;2023-11-22T07:58:38;2.42;;;1.90;;
2488;SDS011;1255;48.716;9.124;2023-11-22T08:01:06;2.42;;;1.75;;
2488;SDS011;1255;48.716;9.124;2023-11-22T08:03:38;3.50;;;2.00;;
2488;SDS011;1255;48.716;9.124;2023-11-22T08:06:09;2.83;;;2.10;;
2488;SDS011;1255;48.716;9.124;2023-11-22T08:08:35;2.95;;;2.58;;
2488;SDS011;1255;48.716;9.124;2023-11-22T08:11:04;2.20;;;2.00;;
2488;SDS011;1255;48.716;9.124;2023-11-22T08:13:41;4.22;;;2.20;;
2488;SDS011;1255;48.716;9.124;2023-11-22T08:16:09;2.60;;;2.17;;
2488;SDS011;1255;48.716;9.124;2023-11-22T08:18:38;2.40;;;2.00;;
2488;SDS011;1255;48.716;9.124;2023-11-22T08:21:05;2.45;;;1.73;;
2488;SDS011;1255;48.716;9.124;2023-11-22T08:23:33;2.95;;;1.45;;
2488;SDS011;1255;48.716;9.124;2023-11-22T08:26:00;5.03;;;2.38;;
2488;SDS011;1255;48.716;9.124;2023-11-22T08:28:27;4.30;;;2.67;;
2488;SDS011;1255;48.716;9.124;2023-11-22T08:30:56;3.67;;;2.05;;
2488;SDS011;1255;48.716;9.124;2023-11-22T08:33:23;3.45;;;2.45;;
2488;SDS011;1255;48.716;9.124;2023-11-22T08:35:50;3.05;;;2.50;;
2488;SDS011;1255;48.716;9.124;2023-11-22T08:38:23;2.88;;;1.50;;
2488;SDS011;1255;48.716;9.124;2023-11-22T08:40:50;1.55;;;1.42;;
2488;SDS011;1255;48.716;9.124;2023-11-22T08:43:16;4.25;;;2.17;;
2488;SDS011;1255;48.716;9.124;2023-11-22T08:45:47;3.47;;;2.13;;
2488;SDS011;1255;48.716;9.124;2023-11-22T08:48:16;2.40;;;2.00;;
2488;SDS011;1255;48.716;9.124;2023-11-22T08:50:42;3.10;;;2.00;;
2488;SDS011;1255;48.716;9.124;2023-11-22T08:53:10;3.25;;;2.35;;
2488;SDS011;1255;48.716;9.124;2023-11-22T08:55:37;2.75;;;2.28;;
2488;SDS011;1255;48.716;9.124;2023-11-22T08:58:04;4.22;;;2.50;;
2488;SDS011;1255;48.716;9.124;2023-11-22T09:00:33;2.20;;;2.00;;
2488;SDS011;1255;48.716;9.124;2023-11-22T09:03:00;2.83;;;2.45;;
2488;SDS011;1255;48.716;9.124;2023-11-22T09:05:29;3.65;;;2.58;;
2488;SDS011;1255;48.716;9.124;2023-11-22T09:07:56;4.97;;;2.20;;
2488;SDS011;1255;48.716;9.124;2023-11-22T09:10:23;3.75;;;2.10;;
2488;SDS011;1255;48.716;9.124;2023-11-22T09:12:51;2.08;;;1.88;;
2488;SDS011;1255;48.716;9.124;2023-11-22T09:15:18;2.85;;;1.83;;
2488;SDS011;1255;48.716;9.124;2023-11-22T09:17:51;2.60;;;2.30;;
2488;SDS011;1255;48.716;9.124;2023-11-22T09:20:19;3.75;;;2.17;;
2488;SDS011;1255;48.716;9.124;2023-11-22T09:22:48;3.78;;;2.70;;
2488;SDS011;1255;48.716;9.124;2023-11-22T09:25:15;3.50;;;2.50;;
2488;SDS011;1255;48.716;9.124;2023-11-22T09:27:44;3.42;;;2.67;;
2488;SDS011;1255;48.716;9.124;2023-11-22T09:30:12;3.60;;;2.25;;
2488;SDS011;1255;48.716;9.124;2023-11-22T09:32:45;2.75;;;2.35;;
2488;SDS011;1255;48.716;9.124;2023-11-22T09:35:12;4.55;;;2.47;;
2488;SDS011;1255;48.716;9.124;2023-11-22T09:37:40;7.18;;;2.70;;
2488;SDS011;1255;48.716;9.124;2023-11-22T09:40:10;2.83;;;2.15;;
2488;SDS011;1255;48.716;9.124;2023-11-22T09:42:39;6.93;;;3.10;;
2488;SDS011;1255;48.716;9.124;2023-11-22T09:45:06;3.33;;;2.60;;
2488;SDS011;1255;48.716;9.124;2023-11-22T09:47:34;3.30;;;3.00;;
2488;SDS011;1255;48.716;9.124;2023-11-22T09:50:01;4.40;;;2.70;;
2488;SDS011;1255;48.716;9.124;2023-11-22T09:52:30;4.80;;;2.50;;
2488;SDS011;1255;48.716;9.124;2023-11-22T09:55:00;4.00;;;2.92;;
2488;SDS011;1255;48.716;9.124;2023-11-22T09:57:30;5.60;;;2.72;;
2488;SDS011;1255;48.716;9.124;2023-11-22T09:59:59;3.65;;;2.67;;
2488;SDS011;1255;48.716;9.124;2023-11-22T10:02:28;3.05;;;2.33;;
2488;SDS011;1255;48.716;9.124;2023-11-22T10:04:55;3.50;;;3.00;;
2488;SDS011;1255;48.716;9.124;2023-11-22T10:07:22;2.70;;;2.17;;
2488;SDS011;1255;48.716;9.124;2023-11-22T10:09:48;4.72;;;3.00;;
2488;SDS011;1255;48.716;9.124;2023-11-22T10:12:18;3.35;;;2.75;;
2488;SDS011;1255;48.716;9.124;2023-11-22T10:14:47;6.95;;;2.67;;
2488;SDS011;1255;48.716;9.124;2023-11-22T10:17:14;2.75;;;2.45;;
2488;SDS011;1255;48.716;9.124;2023-11-22T10:19:41;4.00;;;2.80;;
2488;SDS011;1255;48.716;9.124;2023-11-22T10:22:08;2.65;;;2.42;;
2488;SDS011;1255;48.716;9.124;2023-11-22T10:24:35;5.63;;;2.70;;
2488;SDS011;1255;48.716;9.124;2023-11-22T10:27:02;2.95;;;2.55;;
2488;SDS011;1255;48.716;9.124;2023-11-22T10:29:30;3.38;;;2.50;;
2488;SDS011;1255;48.716;9.124;2023-11-22T10:32:00;4.97;;;2.53;;
2488;SDS011;1255;48.716;9.124;2023-11-22T10:34:27;4.30;;;3.05;;
2488;SDS011;1255;48.716;9.124;2023-11-22T10:36:55;3.70;;;2.92;;
2488;SDS011;1255;48.716;9.124;2023-11-22T10:39:22;3.00;;;2.45;;
2488;SDS011;1255;48.716;9.124;2023-11-22T10:41:51;5.15;;;3.05;;
2488;SDS011;1255;48.716;9.124;2023-11-22T10:44:18;4.68;;;3.00;;
2488;SDS011;1255;48.716;9.124;2023-11-22T10:46:46;5.05;;;3.10;;
2488;SDS011;1255;48.716;9.124;2023-11-22T10:49:15;3.03;;;2.70;;
2488;SDS011;1255;48.716;9.124;2023-11-22T10:51:41;4.82;;;3.03;;
2488;SDS011;1255;48.716;9.124;2023-11-22T10:54:14;8.90;;;3.30;;
2488;SDS011;1255;48.716;9.124;2023-11-22T10:56:41;5.10;;;3.00;;
2488;SDS011;1255;48.716;9.124;2023-11-22T10:59:13;3.97;;;3.05;;
2488;SDS011;1255;48.716;9.124;2023-11-22T11:01:41;3.15;;;2.80;;
2488;SDS011;1255;48.716;9.124;2023-11-22T11:04:18;4.25;;;3.35;;
2488;SDS011;1255;48.716;9.124;2023-11-22T11:06:46;3.95;;;2.85;;
2488;SDS011;1255;48.716;9.124;2023-11-22T11:09:20;4.47;;;3.08;;
2488;SDS011;1255;48.716;9.124;2023-11-22T11:11:52;4.60;;;3.00;;
2488;SDS011;1255;48.716;9.124;2023-11-22T11:14:18;4.00;;;3.00;;
2488;SDS011;1255;48.716;9.124;2023-11-22T11:16:45;3.50;;;3.20;;
2488;SDS011;1255;48.716;9.124;2023-11-22T11:19:14;3.15;;;2.65;;
2488;SDS011;1255;48.716;9.124;2023-11-22T11:21:43;4.25;;;3.08;;
2488;SDS011;1255;48.716;9.124;2023-11-22T11:24:11;4.47;;;3.10;;
2488;SDS011;1255;48.716;9.124;2023-11-22T11:26:38;5.35;;;2.63;;
2488;SDS011;1255;48.716;9.124;2023-11-22T11:29:05;3.63;;;3.25;;
2488;SDS011;1255;48.716;9.124;2023-11-22T11:31:33;3.88;;;3.20;;
2488;SDS011;1255;48.716;9.124;2023-11-22T11:34:06;4.30;;;3.05;;
2488;SDS011;1255;48.716;9.124;2023-11-22T11:36:36;3.60;;;2.88;;
2488;SDS011;1255;48.716;9.124;2023-11-22T11:39:05;3.33;;;3.03;;
2488;SDS011;1255;48.716;9.124;2023-11-22T11:41:34;4.43;;;2.95;;
2488;SDS011;1255;48.716;9.124;2023-11-22T11:44:02;5.88;;;3.63;;
2488;SDS011;1255;48.716;9.124;2023-11-22T11:46:30;6.53;;;3.67;;
2488;SDS011;1255;48.716;9.124;2023-11-22T11:48:58;5.00;;;3.15;;
2488;SDS011;1255;48.716;9.124;2023-11-22T11:51:26;3.45;;;3.15;;
2488;SDS011;1255;48.716;9.124;2023-11-22T11:53:55;3.95;;;3.40;;
2488;SDS011;1255;48.716;9.124;2023-11-22T11:56:21;5.70;;;3.50;;
2488;SDS011;1255;48.716;9.124;2023-11-22T11:58:51;5.47;;;3.38;;
2488;SDS011;1255;48.716;9.124;2023-11-22T12:01:18;2.95;;;2.45;;
2488;SDS011;1255;48.716;9.124;2023-11-22T12:03:46;3.90;;;2.50;;
2488;SDS011;1255;48.716;9.124;2023-11-22T12:06:14;5.30;;;3.30;;
2488;SDS011;1255;48.716;9.124;2023-11-22T12:08:41;3.30;;;2.78;;
2488;SDS011;1255;48.716;9.124;2023-11-22T12:11:10;2.88;;;2.42;;
2488;SDS011;1255;48.716;9.124;2023-11-22T12:13:37;3.97;;;2.70;;
2488;SDS011;1255;48.716;9.124;2023-11-22T12:16:04;4.63;;;3.65;;
2488;SDS011;1255;48.716;9.124;2023-11-22T12:18:38;4.70;;;3.35;;
2488;SDS011;1255;48.716;9.124;2023-11-22T12:21:06;3.75;;;2.90;;
2488;SDS011;1255;48.716;9.124;2023-11-22T12:23:33;3.42;;;2.90;;
2488;SDS011;1255;48.716;9.124;2023-11-22T12:26:01;3.17;;;2.78;;
2488;SDS011;1255;48.716;9.124;2023-11-22T12:28:29;3.55;;;2.85;;
2488;SDS011;1255;48.716;9.124;2023-11-22T12:31:06;5.13;;;3.35;;
2488;SDS011;1255;48.716;9.124;2023-11-22T12:33:34;6.00;;;3.42;;
2488;SDS011;1255;48.716;9.124;2023-11-22T12:36:01;3.85;;;3.22;;
2488;SDS011;1255;48.716;9.124;2023-11-22T12:38:28;3.15;;;2.42;;
2488;SDS011;1255;48.716;9.124;2023-11-22T12:40:56;3.78;;;2.92;;
2488;SDS011;1255;48.716;9.124;2023-11-22T12:43:23;4.22;;;3.58;;
2488;SDS011;1255;48.716;9.124;2023-11-22T12:45:59;5.05;;;2.95;;
2488;SDS011;1255;48.716;9.124;2023-11-22T12:48:26;3.35;;;2.83;;
2488;SDS011;1255;48.716;9.124;2023-11-22T12:50:55;4.32;;;3.00;;
2488;SDS011;1255;48.716;9.124;2023-11-22T12:53:22;5.20;;;3.17;;
2488;SDS011;1255;48.716;9.124;2023-11-22T12:55:51;3.60;;;2.60;;
2488;SDS011;1255;48.716;9.124;2023-11-22T12:58:21;3.40;;;2.78;;
2488;SDS011;1255;48.716;9.124;2023-11-22T13:00:49;4.03;;;3.05;;
2488;SDS011;1255;48.716;9.124;2023-11-22T13:03:20;4.75;;;2.63;;
2488;SDS011;1255;48.716;9.124;2023-11-22T13:05:47;6.90;;;3.40;;
2488;SDS011;1255;48.716;9.124;2023-11-22T13:08:17;3.85;;;2.92;;
2488;SDS011;1255;48.716;9.124;2023-11-22T13:10:45;4.13;;;3.35;;
2488;SDS011;1255;48.716;9.124;2023-11-22T13:13:15;6.50;;;3.63;;
2488;SDS011;1255;48.716;9.124;2023-11-22T13:15:42;4.05;;;3.17;;
2488;SDS011;1255;48.716;9.124;2023-11-22T13:18:10;4.63;;;3.33;;
2488;SDS011;1255;48.716;9.124;2023-11-22T13:20:38;4.03;;;2.92;;
2488;SDS011;1255;48.716;9.124;2023-11-22T13:23:05;2.63;;;2.40;;
2488;SDS011;1255;48.716;9.124;2023-11-22T13:25:33;4.32;;;3.72;;
2488;SDS011;1255;48.716;9.124;2023-11-22T13:27:59;5.28;;;3.08;;
2488;SDS011;1255;48.716;9.124;2023-11-22T13:30:27;4.32;;;3.60;;
2488;SDS011;1255;48.716;9.124;2023-11-22T13:32:54;3.60;;;3.10;;
2488;SDS011;1255;48.716;9.124;2023-11-22T13:35:22;3.40;;;2.75;;
2488;SDS011;1255;48.716;9.124;2023-11-22T13:37:50;4.57;;;3.00;;
2488;SDS011;1255;48.716;9.124;2023-11-22T13:40:18;4.68;;;2.95;;
2488;SDS011;1255;48.716;9.124;2023-11-22T13:42:47;5.72;;;3.65;;
2488;SDS011;1255;48.716;9.124;2023-11-22T13:45:18;3.40;;;3.05;;
2488;SDS011;1255;48.716;9.124;2023-11-22T13:47:46;4.15;;;2.63;;
2488;SDS011;1255;48.716;9.124;2023-11-22T13:50:14;4.88;;;3.38;;
2488;SDS011;1255;48.716;9.124;2023-11-22T13:52:44;4.32;;;2.50;;
2488;SDS011;1255;48.716;9.124;2023-11-22T13:55:14;3.33;;;2.50;;
2488;SDS011;1255;48.716;9.124;2023-11-22T13:57:47;2.70;;;2.47;;
2488;SDS011;1255;48.716;9.124;2023-11-22T14:00:14;6.47;;;3.35;;
2488;SDS011;1255;48.716;9.124;2023-11-22T14:02:44;3.97;;;3.03;;
2488;SDS011;1255;48.716;9.124;2023-11-22T14:05:12;5.03;;;3.45;;
2488;SDS011;1255;48.716;9.124;2023-11-22T14:07:40;3.08;;;2.67;;
2488;SDS011;1255;48.716;9.124;2023-11-22T14:10:08;5.28;;;2.63;;
2488;SDS011;1255;48.716;9.124;2023-11-22T14:12:37;3.83;;;3.30;;
2488;SDS011;1255;48.716;9.124;2023-11-22T14:15:05;5.85;;;3.50;;
2488;SDS011;1255;48.716;9.124;2023-11-22T14:17:33;4.03;;;3.50;;
2488;SDS011;1255;48.716;9.124;2023-11-22T14:20:02;5.72;;;3.35;;
2488;SDS011;1255;48.716;9.124;2023-11-22T14:22:30;4.18;;;2.67;;
2488;SDS011;1255;48.716;9.124;2023-11-22T14:24:58;5.10;;;3.85;;
2488;SDS011;1255;48.716;9.124;2023-11-22T14:27:28;3.50;;;2.90;;
2488;SDS011;1255;48.716;9.124;2023-11-22T14:29:58;4.05;;;3.03;;
2488;SDS011;1255;48.716;9.124;2023-11-22T14:32:27;4.22;;;3.00;;
2488;SDS011;1255;48.716;9.124;2023-11-22T14:34:56;3.38;;;2.78;;
2488;SDS011;1255;48.716;9.124;2023-11-22T14:37:23;3.25;;;2.95;;
2488;SDS011;1255;48.716;9.124;2023-11-22T14:39:50;3.10;;;2.80;;
2488;SDS011;1255;48.716;9.124;2023-11-22T14:42:19;6.35;;;3.50;;
2488;SDS011;1255;48.716;9.124;2023-11-22T14:44:46;4.85;;;4.00;;
2488;SDS011;1255;48.716;9.124;2023-11-22T14:47:16;4.95;;;3.15;;
2488;SDS011;1255;48.716;9.124;2023-11-22T14:49:48;4.50;;;2.80;;
2488;SDS011;1255;48.716;9.124;2023-11-22T14:52:14;3.42;;;3.05;;
2488;SDS011;1255;48.716;9.124;2023-11-22T14:54:42;4.10;;;3.35;;
2488;SDS011;1255;48.716;9.124;2023-11-22T14:57:09;2.60;;;2.40;;
2488;SDS011;1255;48.716;9.124;2023-11-22T14:59:37;4.03;;;3.72;;
2488;SDS011;1255;48.716;9.124;2023-11-22T15:02:05;3.83;;;2.65;;
2488;SDS011;1255;48.716;9.124;2023-11-22T15:04:35;3.95;;;2.80;;
2488;SDS011;1255;48.716;9.124;2023-11-22T15:07:02;4.43;;;2.75;;
2488;SDS011;1255;48.716;9.124;2023-11-22T15:09:30;2.70;;;2.50;;
2488;SDS011;1255;48.716;9.124;2023-11-22T15:11:57;4.10;;;3.30;;
2488;SDS011;1255;48.716;9.124;2023-11-22T15:14:24;3.53;;;2.67;;
2488;SDS011;1255;48.716;9.124;2023-11-22T15:16:51;5.22;;;3.22;;
2488;SDS011;1255;48.716;9.124;2023-11-22T15:19:19;4.00;;;2.80;;
2488;SDS011;1255;48.716;9.124;2023-11-22T15:21:50;3.33;;;2.97;;
2488;SDS011;1255;48.716;9.124;2023-11-22T15:24:18;5.75;;;3.53;;
2488;SDS011;1255;48.716;9.124;2023-11-22T15:26:45;4.93;;;2.90;;
2488;SDS011;1255;48.716;9.124;2023-11-22T15:29:12;5.13;;;4.10;;
2488;SDS011;1255;48.716;9.124;2023-11-22T15:31:40;4.80;;;3.00;;
2488;SDS011;1255;48.716;9.124;2023-11-22T15:34:08;5.50;;;3.97;;
2488;SDS011;1255;48.716;9.124;2023-11-22T15:36:35;3.95;;;3.15;;
2488;SDS011;1255;48.716;9.124;2023-11-22T15:39:04;2.58;;;2.38;;
2488;SDS011;1255;48.716;9.124;2023-11-22T15:41:36;4.07;;;3.53;;
2488;SDS011;1255;48.716;9.124;2023-11-22T15:44:03;3.65;;;3.13;;
2488;SDS011;1255;48.716;9.124;2023-11-22T15:46:30;5.47;;;3.35;;
2488;SDS011;1255;48.716;9.124;2023-11-22T15:48:57;4.47;;;3.67;;
2488;SDS011;1255;48.716;9.124;2023-11-22T15:51:24;4.32;;;3.10;;
2488;SDS011;1255;48.716;9.124;2023-11-22T15:53:51;4.45;;;3.00;;
2488;SDS011;1255;48.716;9.124;2023-11-22T15:56:19;4.43;;;3.05;;
2488;SDS011;1255;48.716;9.124;2023-11-22T15:58:46;2.72;;;2.53;;
2488;SDS011;1255;48.716;9.124;2023-11-22T16:01:14;4.20;;;3.08;;
2488;SDS011;1255;48.716;9.124;2023-11-22T16:03:42;4.03;;;3.63;;
2488;SDS011;1255;48.716;9.124;2023-11-22T16:06:09;4.70;;;3.00;;
2488;SDS011;1255;48.716;9.124;2023-11-22T16:08:38;4.22;;;3.60;;
2488;SDS011;1255;48.716;9.124;2023-11-22T16:11:05;10.73;;;5.45;;
2488;SDS011;1255;48.716;9.124;2023-11-22T16:13:35;6.85;;;4.55;;
2488;SDS011;1255;48.716;9.124;2023-11-22T16:16:02;5.75;;;3.80;;
2488;SDS011;1255;48.716;9.124;2023-11-22T16:18:29;4.80;;;4.03;;
2488;SDS011;1255;48.716;9.124;2023-11-22T16:20:56;4.82;;;3.92;;
2488;SDS011;1255;48.716;9.124;2023-11-22T16:23:24;6.70;;;4.20;;
2488;SDS011;1255;48.716;9.124;2023-11-22T16:25:50;4.40;;;3.97;;
2488;SDS011;1255;48.716;9.124;2023-11-22T16:28:17;6.70;;;4.72;;
2488;SDS011;1255;48.716;9.124;2023-11-22T16:30:45;7.22;;;3.80;;
2488;SDS011;1255;48.716;9.124;2023-11-22T16:33:13;5.03;;;4.53;;
2488;SDS011;1255;48.716;9.124;2023-11-22T16:35:40;6.10;;;3.95;;
2488;SDS011;1255;48.716;9.124;2023-11-22T16:38:07;6.25;;;3.25;;
2488;SDS011;1255;48.716;9.124;2023-11-22T16:40:34;6.28;;;3.55;;
2488;SDS011;1255;48.716;9.124;2023-11-22T16:43:02;5.38;;;4.47;;
2488;SDS011;1255;48.716;9.124;2023-11-22T16:45:29;5.80;;;4.10;;
2488;SDS011;1255;48.716;9.124;2023-11-22T16:47:58;6.35;;;4.25;;
2488;SDS011;1255;48.716;9.124;2023-11-22T16:50:26;3.88;;;3.42;;
2488;SDS011;1255;48.716;9.124;2023-11-22T16:52:54;5.80;;;4.32;;
2488;SDS011;1255;48.716;9.124;2023-11-22T16:55:22;4.30;;;3.90;;
2488;SDS011;1255;48.716;9.124;2023-11-22T16:57:49;4.95;;;3.78;;
2488;SDS011;1255;48.716;9.124;2023-11-22T17:00:18;4.75;;;3.63;;
2488;SDS011;1255;48.716;9.124;2023-11-22T17:02:46;4.72;;;3.28;;
2488;SDS011;1255;48.716;9.124;2023-11-22T17:05:17;4.70;;;3.67;;
2488;SDS011;1255;48.716;9.124;2023-11-22T17:07:45;4.88;;;3.05;;
2488;SDS011;1255;48.716;9.124;2023-11-22T17:10:13;3.25;;;2.95;;
2488;SDS011;1255;48.716;9.124;2023-11-22T17:12:40;4.75;;;3.50;;
2488;SDS011;1255;48.716;9.124;2023-11-22T17:15:08;3.25;;;2.95;;
2488;SDS011;1255;48.716;9.124;2023-11-22T17:17:36;4.55;;;2.90;;
2488;SDS011;1255;48.716;9.124;2023-11-22T17:20:04;3.90;;;3.08;;
2488;SDS011;1255;48.716;9.124;2023-11-22T17:22:37;4.13;;;3.20;;
2488;SDS011;1255;48.716;9.124;2023-11-22T17:25:04;3.05;;;2.67;;
2488;SDS011;1255;48.716;9.124;2023-11-22T17:27:35;5.18;;;3.13;;
2488;SDS011;1255;48.716;9.124;2023-11-22T17:30:04;3.95;;;3.05;;
2488;SDS011;1255;48.716;9.124;2023-11-22T17:32:33;6.43;;;3.88;;
2488;SDS011;1255;48.716;9.124;2023-11-22T17:35:02;4.20;;;3.45;;
2488;SDS011;1255;48.716;9.124;2023-11-22T17:37:29;3.85;;;3.45;;
2488;SDS011;1255;48.716;9.124;2023-11-22T17:39:58;9.95;;;3.40;;
2488;SDS011;1255;48.716;9.124;2023-11-22T17:42:26;5.07;;;3.28;;
2488;SDS011;1255;48.716;9.124;2023-11-22T17:44:52;4.82;;;3.85;;
2488;SDS011;1255;48.716;9.124;2023-11-22T17:47:20;3.22;;;2.92;;
2488;SDS011;1255;48.716;9.124;2023-11-22T17:49:48;4.00;;;3.55;;
2488;SDS011;1255;48.716;9.124;2023-11-22T17:52:16;4.85;;;3.30;;
2488;SDS011;1255;48.716;9.124;2023-11-22T17:54:44;4.30;;;3.50;;
2488;SDS011;1255;48.716;9.124;2023-11-22T17:57:13;4.53;;;3.55;;
2488;SDS011;1255;48.716;9.124;2023-11-22T17:59:42;3.40;;;3.10;;
2488;SDS011;1255;48.716;9.124;2023-11-22T18:02:09;3.22;;;2.95;;
2488;SDS011;1255;48.716;9.124;2023-11-22T18:04:37;4.15;;;3.20;;
2488;SDS011;1255;48.716;9.124;2023-11-22T18:07:04;3.10;;;2.80;;
2488;SDS011;1255;48.716;9.124;2023-11-22T18:09:31;4.40;;;2.60;;
2488;SDS011;1255;48.716;9.124;2023-11-22T18:11:59;7.32;;;3.90;;
2488;SDS011;1255;48.716;9.124;2023-11-22T18:14:32;3.78;;;2.85;;
2488;SDS011;1255;48.716;9.124;2023-11-22T18:17:01;5.22;;;3.75;;
2488;SDS011;1255;48.716;9.124;2023-11-22T18:19:29;6.25;;;4.50;;
2488;SDS011;1255;48.716;9.124;2023-11-22T18:21:57;3.92;;;3.30;;
2488;SDS011;1255;48.716;9.124;2023-11-22T18:24:24;4.40;;;3.47;;
2488;SDS011;1255;48.716;9.124;2023-11-22T18:26:54;3.75;;;3.35;;
2488;SDS011;1255;48.716;9.124;2023-11-22T18:29:22;5.40;;;3.30;;
2488;SDS011;1255;48.716;9.124;2023-11-22T18:31:54;3.85;;;3.53;;
2488;SDS011;1255;48.716;9.124;2023-11-22T18:34:23;3.15;;;2.70;;
2488;SDS011;1255;48.716;9.124;2023-11-22T18:36:56;4.40;;;4.00;;
2488;SDS011;1255;48.716;9.124;2023-11-22T18:39:23;4.90;;;4.40;;
2488;SDS011;1255;48.716;9.124;2023-11-22T18:41:50;4.85;;;3.83;;
2488;SDS011;1255;48.716;9.124;2023-11-22T18:44:18;5.82;;;3.67;;
2488;SDS011;1255;48.716;9.124;2023-11-22T18:46:45;4.65;;;3.63;;
2488;SDS011;1255;48.716;9.124;2023-11-22T18:49:15;3.00;;;2.70;;
2488;SDS011;1255;48.716;9.124;2023-11-22T18:51:45;3.30;;;2.97;;
2488;SDS011;1255;48.716;9.124;2023-11-22T18:54:12;5.20;;;3.80;;
2488;SDS011;1255;48.716;9.124;2023-11-22T18:56:39;5.85;;;4.45;;
2488;SDS011;1255;48.716;9.124;2023-11-22T18:59:09;5.15;;;4.18;;
2488;SDS011;1255;48.716;9.124;2023-11-22T19:01:36;3.72;;;3.33;;
2488;SDS011;1255;48.716;9.124;2023-11-22T19:04:04;2.65;;;2.35;;
2488;SDS011;1255;48.716;9.124;2023-11-22T19:06:35;4.35;;;2.95;;
2488;SDS011;1255;48.716;9.124;2023-11-22T19:09:03;4.85;;;3.58;;
2488;SDS011;1255;48.716;9.124;2023-11-22T19:11:33;4.47;;;3.97;;
2488;SDS011;1255;48.716;9.124;2023-11-22T19:14:00;5.70;;;4.07;;
2488;SDS011;1255;48.716;9.124;2023-11-22T19:16:27;5.57;;;3.22;;
2488;SDS011;1255;48.716;9.124;2023-11-22T19:18:55;7.00;;;4.00;;
2488;SDS011;1255;48.716;9.124;2023-11-22T19:21:22;4.57;;;3.53;;
2488;SDS011;1255;48.716;9.124;2023-11-22T19:23:50;6.72;;;4.03;;
2488;SDS011;1255;48.716;9.124;2023-11-22T19:26:21;4.53;;;3.65;;
2488;SDS011;1255;48.716;9.124;2023-11-22T19:28:49;3.65;;;3.35;;
2488;SDS011;1255;48.716;9.124;2023-11-22T19:31:16;4.25;;;3.20;;
2488;SDS011;1255;48.716;9.124;2023-11-22T19:33:43;5.25;;;4.43;;
2488;SDS011;1255;48.716;9.124;2023-11-22T19:36:18;8.10;;;3.95;;